Time;durP1;ratioP1;P1;durP2;ratioP2;P2;SDS_P1;SDS_P2;PMS_P1;PMS_P2;Temp;Humidity;BMP_temperature;BMP_pressure;BME280_temperature;BME280_humidity;BME280_pressure;Samples;Min_cycle;Max_cycle;Signal;HPM_P1;HPM_P2
2023/08/24 00:04:06;;;;;;;4.90;3.70;;;;;;;17.99;71.15;100670.78;10122011;29;20063;-76
2023/08/24 00:09:09;;;;;;;8.90;4.20;;;;;;;18.16;70.08;100666.22;10121847;28;20063;-72
2023/08/24 00:14:14;;;;;;;6.05;4.70;;;;;;;18.28;69.59;100664.03;10124228;28;20103;-76
2023/08/24 00:19:16;;;;;;;6.20;3.95;;;;;;;18.28;69.37;100664.88;10118366;29;20048;-75
2023/08/24 00:24:19;;;;;;;8.85;4.63;;;;;;;18.26;69.21;100661.47;10117570;29;20051;-75
2023/08/24 00:29:23;;;;;;;5.90;4.18;;;;;;;18.35;69.19;100652.31;10117969;29;20048;-76
2023/08/24 00:34:26;;;;;;;5.82;4.38;;;;;;;18.37;68.67;100643.97;10125806;28;20104;-75
2023/08/24 00:39:29;;;;;;;5.80;4.07;;;;;;;18.31;68.44;100650.09;10129327;28;20049;-75
2023/08/24 00:44:33;;;;;;;5.68;4.13;;;;;;;18.20;68.74;100645.81;10112213;29;20531;-75
2023/08/24 00:49:36;;;;;;;7.97;4.00;;;;;;;18.18;68.69;100650.56;10117120;29;20054;-76
2023/08/24 00:54:40;;;;;;;5.82;4.30;;;;;;;18.13;68.89;100650.25;10122016;29;20442;-75
2023/08/24 00:59:45;;;;;;;4.70;4.10;;;;;;;17.93;69.46;100633.34;10123554;28;21094;-76
2023/08/24 01:04:48;;;;;;;7.97;3.95;;;;;;;17.92;69.52;100639.81;10120889;28;20078;-77
2023/08/24 01:09:51;;;;;;;6.30;3.88;;;;;;;17.72;70.13;100650.13;10121125;29;20074;-76
2023/08/24 01:15:05;;;;;;;6.03;4.82;;;;;;;17.81;70.31;100642.84;10120112;29;20697;-76
2023/08/24 01:20:09;;;;;;;8.57;4.70;;;;;;;17.79;69.44;100637.56;10125946;29;20533;-76
2023/08/24 01:25:16;;;;;;;4.40;3.80;;;;;;;17.67;70.25;100645.16;10133539;29;20531;-76
2023/08/24 01:30:21;;;;;;;7.85;4.60;;;;;;;17.35;70.80;100654.03;10130948;28;20067;-75
2023/08/24 01:35:25;;;;;;;4.93;4.30;;;;;;;17.29;71.91;100654.66;10127410;28;20550;-74
2023/08/24 01:40:36;;;;;;;6.90;4.68;;;;;;;17.31;71.93;100647.22;10131194;29;20504;-77
2023/08/24 01:45:43;;;;;;;6.10;4.50;;;;;;;17.42;71.30;100637.94;10127132;29;20733;-76
2023/08/24 01:50:47;;;;;;;7.00;4.65;;;;;;;17.53;70.67;100640.38;10126192;29;20059;-76
2023/08/24 01:55:50;;;;;;;6.30;4.53;;;;;;;17.38;71.09;100631.13;10137767;28;20054;-75
2023/08/24 02:00:54;;;;;;;5.80;4.38;;;;;;;17.36;71.09;100616.84;10125746;28;20059;-74
2023/08/24 02:05:57;;;;;;;6.07;5.22;;;;;;;17.37;71.01;100596.84;10125858;29;20080;-74
2023/08/24 02:11:00;;;;;;;9.10;5.68;;;;;;;17.21;71.08;100597.63;10128458;29;21195;-76
2023/08/24 02:16:06;;;;;;;8.05;5.78;;;;;;;17.09;71.67;100598.91;10130324;29;20056;-74
2023/08/24 02:21:12;;;;;;;6.78;5.97;;;;;;;16.99;72.33;100597.13;10131246;29;20059;-76
2023/08/24 02:26:15;;;;;;;10.25;6.38;;;;;;;16.73;72.31;100599.00;10130044;28;20290;-76
2023/08/24 02:31:19;;;;;;;8.45;6.80;;;;;;;16.47;73.73;100604.41;10128410;29;20504;-78
2023/08/24 02:36:23;;;;;;;7.55;6.20;;;;;;;16.15;75.04;100601.25;10133521;29;20051;-76
2023/08/24 02:41:25;;;;;;;12.55;7.32;;;;;;;16.25;76.04;100590.31;10136892;29;20564;-76
2023/08/24 02:46:30;;;;;;;9.55;7.00;;;;;;;16.66;74.74;100584.38;10139545;29;20134;-76
2023/08/24 02:51:33;;;;;;;7.25;6.15;;;;;;;16.85;73.24;100586.88;10126765;29;20052;-76
2023/08/24 02:56:35;;;;;;;8.13;7.20;;;;;;;16.92;72.73;100578.94;10126936;28;21192;-78
2023/08/24 03:01:41;;;;;;;11.15;9.63;;;;;;;16.91;72.95;100580.81;10129807;29;20073;-75
2023/08/24 03:06:45;;;;;;;10.48;9.55;;;;;;;16.98;73.05;100579.16;10127735;29;20044;-75
2023/08/24 03:11:47;;;;;;;11.32;10.05;;;;;;;17.02;72.47;100579.69;10128031;29;20052;-76
2023/08/24 03:16:52;;;;;;;11.93;9.70;;;;;;;17.03;72.65;100574.09;10125794;29;20063;-75
2023/08/24 03:21:55;;;;;;;13.38;11.05;;;;;;;17.07;72.09;100584.63;10124948;28;20218;-75
2023/08/24 03:26:57;;;;;;;12.07;10.80;;;;;;;17.08;72.39;100581.75;10129254;28;20094;-76
2023/08/24 03:32:02;;;;;;;11.93;10.77;;;;;;;17.08;72.15;100586.31;10123743;29;20062;-75
2023/08/24 03:37:05;;;;;;;13.88;10.85;;;;;;;16.96;72.21;100578.47;10126391;29;20044;-76
2023/08/24 03:42:08;;;;;;;15.20;11.90;;;;;;;16.71;72.64;100577.47;10125076;29;20078;-76
2023/08/24 03:47:13;;;;;;;14.57;12.38;;;;;;;16.54;73.33;100594.66;10129433;28;20048;-76
2023/08/24 03:52:16;;;;;;;22.52;13.82;;;;;;;16.58;74.14;100591.44;10124010;29;20048;-77
2023/08/24 03:57:19;;;;;;;13.95;12.70;;;;;;;16.74;73.50;100589.88;10128939;29;20775;-76
2023/08/24 04:02:26;;;;;;;13.00;11.88;;;;;;;16.72;73.13;100602.72;10128012;29;21356;-76
2023/08/24 04:07:29;;;;;;;17.17;13.32;;;;;;;16.71;73.67;100603.75;10127817;29;20055;-74
2023/08/24 04:12:32;;;;;;;14.32;12.77;;;;;;;16.88;73.34;100612.84;10124626;29;20075;-77
2023/08/24 04:17:37;;;;;;;14.95;13.25;;;;;;;16.76;73.18;100604.13;10122627;28;20052;-77
2023/08/24 04:22:42;;;;;;;14.85;12.98;;;;;;;16.70;73.90;100594.78;10122238;29;20120;-76
2023/08/24 04:27:45;;;;;;;16.38;13.38;;;;;;;16.66;73.93;100578.97;10124233;29;20082;-76
2023/08/24 04:32:50;;;;;;;15.77;14.13;;;;;;;16.62;74.24;100574.84;10121082;29;20146;-76
2023/08/24 04:37:54;;;;;;;15.20;13.18;;;;;;;16.61;74.59;100574.00;10120494;29;21185;-77
2023/08/24 04:42:57;;;;;;;14.45;11.88;;;;;;;16.85;74.25;100599.59;10120817;28;20100;-77
2023/08/24 04:48:02;;;;;;;15.52;12.82;;;;;;;17.03;73.53;100605.78;10121311;29;20056;-77
2023/08/24 04:53:06;;;;;;;13.77;12.32;;;;;;;16.82;73.15;100617.06;10122027;29;20040;-77
2023/08/24 04:58:10;;;;;;;14.00;12.80;;;;;;;16.52;75.00;100630.06;10117789;29;20127;-77
2023/08/24 05:03:14;;;;;;;15.52;13.40;;;;;;;16.87;74.85;100628.28;10118648;29;20052;-77
2023/08/24 05:08:17;;;;;;;14.35;11.55;;;;;;;17.03;74.41;100627.50;10119559;29;20494;-77
2023/08/24 05:13:20;;;;;;;13.32;10.65;;;;;;;16.74;74.92;100641.41;10120881;29;20060;-76
2023/08/24 05:18:24;;;;;;;12.45;11.07;;;;;;;16.33;79.56;100641.06;10118509;29;20060;-77
2023/08/24 05:23:26;;;;;;;14.50;12.77;;;;;;;16.29;82.29;100621.56;10119820;29;20093;-76
2023/08/24 05:28:31;;;;;;;18.25;16.55;;;;;;;16.22;84.03;100617.72;10117093;29;20048;-75
2023/08/24 05:33:35;;;;;;;22.10;18.60;;;;;;;16.13;85.48;100588.88;10119046;29;20092;-77
2023/08/24 05:38:38;;;;;;;22.83;19.02;;;;;;;16.12;85.81;100571.72;10110590;28;20048;-77
2023/08/24 05:43:52;;;;;;;26.07;20.87;;;;;;;16.08;85.95;100542.41;10114431;29;20048;-75
2023/08/24 05:48:56;;;;;;;29.88;26.73;;;;;;;15.99;85.85;100532.50;10114938;29;20044;-74
2023/08/24 05:54:01;;;;;;;31.88;28.38;;;;;;;16.15;85.92;100538.06;10120160;29;20056;-73
2023/08/24 05:59:03;;;;;;;33.78;30.13;;;;;;;16.25;85.49;100549.66;10117200;29;20578;-76
2023/08/24 06:04:10;;;;;;;33.55;29.98;;;;;;;16.18;84.42;100554.03;10126516;28;20059;-77
2023/08/24 06:09:14;;;;;;;32.15;28.88;;;;;;;16.49;84.27;100559.03;10121756;28;20052;-77
2023/08/24 06:14:17;;;;;;;30.33;27.25;;;;;;;16.68;85.12;100568.81;10125886;29;20084;-77
2023/08/24 06:19:21;;;;;;;22.05;18.77;;;;;;;16.62;83.66;100564.88;10127156;29;20048;-76
2023/08/24 06:24:24;;;;;;;22.20;19.92;;;;;;;17.16;83.12;100575.53;10128143;29;21505;-76
2023/08/24 06:29:29;;;;;;;27.25;23.08;;;;;;;17.57;83.63;100567.53;10125560;29;20043;-76
2023/08/24 06:34:34;;;;;;;28.63;24.20;;;;;;;17.53;81.32;100560.75;10122711;28;20071;-76
2023/08/24 06:39:36;;;;;;;27.70;24.73;;;;;;;17.47;80.20;100546.81;10129023;28;20056;-76
2023/08/24 06:44:39;;;;;;;26.60;22.38;;;;;;;17.66;82.29;100542.97;10128544;29;20044;-75
2023/08/24 06:49:43;;;;;;;27.92;25.00;;;;;;;17.82;78.65;100528.53;10126635;29;20052;-76
2023/08/24 06:54:48;;;;;;;26.88;24.00;;;;;;;18.36;80.51;100531.63;10125925;29;20056;-76
2023/08/24 06:59:51;;;;;;;21.83;19.45;;;;;;;18.65;80.92;100527.50;10126099;28;20060;-77
2023/08/24 07:04:57;;;;;;;24.02;21.60;;;;;;;18.68;78.54;100526.31;10127919;28;20584;-75
2023/08/24 07:09:59;;;;;;;21.90;19.88;;;;;;;18.91;79.54;100521.00;10127302;29;20073;-76
2023/08/24 07:15:02;;;;;;;26.23;23.45;;;;;;;18.91;76.90;100513.66;10130825;29;20053;-75
2023/08/24 07:20:08;;;;;;;24.42;21.90;;;;;;;18.74;76.71;100501.13;10121525;29;20052;-76
2023/08/24 07:25:12;;;;;;;29.13;25.75;;;;;;;19.14;76.12;100472.06;10124385;29;20142;-76
2023/08/24 07:30:15;;;;;;;30.48;25.15;;;;;;;19.76;73.93;100469.28;10124175;28;20057;-75
2023/08/24 07:35:36;;;;;;;28.88;24.80;;;;;;;19.40;72.51;100472.59;10129732;29;20062;-75
2023/08/24 07:40:39;;;;;;;27.70;24.90;;;;;;;20.01;72.89;100471.81;10140516;29;20059;-76
2023/08/24 07:45:41;;;;;;;25.67;22.83;;;;;;;20.73;72.27;100472.13;10136628;29;20673;-77
2023/08/24 07:50:46;;;;;;;23.60;20.60;;;;;;;20.91;66.24;100470.88;10128028;29;20052;-76
2023/08/24 07:55:49;;;;;;;20.17;18.27;;;;;;;21.18;64.93;100478.41;10130429;28;20056;-76
2023/08/24 08:00:51;;;;;;;22.15;18.92;;;;;;;21.71;63.91;100480.00;10131967;29;20052;-76
2023/08/24 08:05:56;;;;;;;20.08;18.17;;;;;;;21.75;61.76;100473.13;10122773;29;20052;-76
2023/08/24 08:11:00;;;;;;;20.48;18.25;;;;;;;21.85;61.43;100484.59;10121169;29;20609;-76
2023/08/24 08:16:04;;;;;;;19.90;17.45;;;;;;;22.16;60.89;100478.78;10128846;29;20420;-76
2023/08/24 08:21:12;;;;;;;18.95;17.10;;;;;;;22.49;60.35;100484.50;10121779;29;20131;-75
2023/08/24 08:26:15;;;;;;;17.70;15.93;;;;;;;22.87;60.12;100472.28;10122361;28;20060;-76
2023/08/24 08:31:18;;;;;;;16.15;14.18;;;;;;;23.16;59.01;100473.94;10124004;28;20055;-76
2023/08/24 08:36:25;;;;;;;17.08;15.38;;;;;;;24.07;58.45;100466.09;10121608;29;20146;-76
2023/08/24 08:41:31;;;;;;;15.30;13.13;;;;;;;24.75;54.12;100460.31;10121719;29;20083;-76
2023/08/24 08:46:34;;;;;;;16.55;14.75;;;;;;;25.68;51.55;100470.06;10121341;29;20147;-76
2023/08/24 08:51:39;;;;;;;14.15;12.55;;;;;;;26.02;51.27;100470.63;10123876;28;20067;-76
2023/08/24 08:56:42;;;;;;;13.98;12.63;;;;;;;25.53;52.53;100461.22;10126703;28;20060;-76
2023/08/24 09:01:48;;;;;;;15.40;12.90;;;;;;;25.50;53.90;100453.44;10127218;29;20496;-77
2023/08/24 09:06:52;;;;;;;15.35;12.85;;;;;;;25.23;53.65;100434.34;10121439;29;20555;-76
2023/08/24 09:11:55;;;;;;;12.63;11.52;;;;;;;25.42;53.53;100427.03;10121681;28;20060;-74
2023/08/24 09:16:58;;;;;;;12.90;11.35;;;;;;;25.26;52.90;100425.69;10125363;28;20055;-76
2023/08/24 09:22:03;;;;;;;11.52;10.43;;;;;;;25.22;53.48;100415.34;10127772;29;20172;-75
2023/08/24 09:27:15;;;;;;;12.50;10.90;;;;;;;26.07;51.78;100402.00;10121681;29;21322;-76
2023/08/24 09:32:23;;;;;;;11.75;10.55;;;;;;;25.67;51.64;100388.63;10120948;29;20056;-76
2023/08/24 09:37:32;;;;;;;10.00;8.93;;;;;;;26.08;49.18;100376.16;10122238;29;21416;-76
2023/08/24 09:42:44;;;;;;;11.07;9.00;;;;;;;26.24;48.94;100374.75;10128828;29;20059;-75
2023/08/24 09:47:51;;;;;;;9.52;8.10;;;;;;;26.60;48.07;100378.56;10132592;28;20053;-76
2023/08/24 09:53:00;;;;;;;11.88;7.53;;;;;;;26.96;45.71;100383.25;10131526;29;20052;-76
2023/08/24 09:58:07;;;;;;;11.15;7.10;;;;;;;27.64;45.44;100372.91;10130390;29;20052;-76
2023/08/24 10:03:13;;;;;;;8.30;6.63;;;;;;;28.42;43.29;100374.50;10131133;28;20064;-75
2023/08/24 10:08:22;;;;;;;8.52;6.38;;;;;;;28.11;44.32;100359.97;10126258;28;20520;-76
2023/08/24 10:13:32;;;;;;;8.77;6.65;;;;;;;28.53;43.24;100350.72;10137273;28;20051;-76
2023/08/24 10:18:37;;;;;;;6.32;5.30;;;;;;;28.84;41.04;100335.59;10132289;28;20051;-75
2023/08/24 10:23:44;;;;;;;10.30;5.20;;;;;;;29.20;42.57;100328.81;10136306;29;20047;-76
2023/08/24 10:28:47;;;;;;;7.38;6.68;;;;;;;29.50;41.71;100306.34;10142191;28;20048;-77
2023/08/24 10:33:52;;;;;;;10.13;7.45;;;;;;;29.11;41.51;100306.25;10134345;28;20051;-75
2023/08/24 10:38:58;;;;;;;8.27;6.20;;;;;;;29.41;42.77;100309.81;10136062;28;21732;-76
2023/08/24 10:44:07;;;;;;;5.72;4.90;;;;;;;30.13;40.75;100318.16;10132704;28;20064;-76
2023/08/24 10:49:10;;;;;;;8.18;4.50;;;;;;;30.49;40.48;100315.84;10129625;28;20407;-74
2023/08/24 10:54:15;;;;;;;6.97;4.93;;;;;;;30.51;38.90;100327.50;10133840;28;20496;-74
2023/08/24 10:59:20;;;;;;;8.52;4.32;;;;;;;30.74;39.31;100311.72;10129265;29;20052;-77
2023/08/24 11:04:23;;;;;;;7.03;5.07;;;;;;;32.77;36.63;100317.09;10133460;29;20063;-77
2023/08/24 11:09:46;;;;;;;6.60;5.75;;;;;;;32.60;35.67;100297.00;10125194;28;20832;-77
2023/08/24 11:14:51;;;;;;;9.35;5.40;;;;;;;32.88;34.74;100279.00;10117255;28;20056;-75
2023/08/24 11:19:55;;;;;;;6.60;4.80;;;;;;;33.19;35.02;100259.59;10118181;29;20649;-77
2023/08/24 11:24:59;;;;;;;7.32;5.97;;;;;;;34.12;33.80;100256.41;10124154;29;20047;-77
2023/08/24 11:30:05;;;;;;;5.32;4.40;;;;;;;33.99;33.54;100245.81;10126515;29;20060;-76
2023/08/24 11:35:11;;;;;;;5.00;3.80;;;;;;;34.56;33.25;100244.50;10122652;28;20056;-77
2023/08/24 11:40:20;;;;;;;5.85;3.65;;;;;;;33.92;33.42;100218.25;10120084;28;20055;-77
2023/08/24 11:45:23;;;;;;;6.47;3.17;;;;;;;34.19;34.51;100189.19;10119396;29;20126;-77
2023/08/24 11:50:27;;;;;;;7.25;2.83;;;;;;;34.03;33.02;100199.53;10118945;29;20532;-77
2023/08/24 11:55:31;;;;;;;4.78;3.20;;;;;;;33.99;33.84;100174.22;10132341;29;20075;-75
2023/08/24 12:00:34;;;;;;;6.07;3.08;;;;;;;32.88;34.60;100178.88;10122751;29;20551;-74
2023/08/24 12:05:37;;;;;;;4.47;3.28;;;;;;;32.75;34.96;100179.44;10126761;28;20056;-77
2023/08/24 12:10:44;;;;;;;4.28;3.47;;;;;;;32.41;35.85;100164.09;10118884;28;20056;-76
2023/08/24 12:15:50;;;;;;;6.97;3.17;;;;;;;31.86;37.05;100157.22;10121502;28;20497;-77
2023/08/24 12:20:53;;;;;;;4.82;3.13;;;;;;;31.50;37.04;100159.00;10130656;29;20082;-77
2023/08/24 12:25:57;;;;;;;4.28;3.05;;;;;;;31.56;37.09;100155.97;10122788;29;20048;-77
2023/08/24 12:31:03;;;;;;;4.97;3.45;;;;;;;31.19;38.34;100144.13;10116578;29;20060;-76
2023/08/24 12:36:06;;;;;;;8.25;3.25;;;;;;;30.78;39.23;100144.59;10120338;28;20048;-77
2023/08/24 12:41:10;;;;;;;4.38;3.45;;;;;;;30.72;38.77;100162.31;10124751;29;20055;-77
2023/08/24 12:46:13;;;;;;;5.03;2.90;;;;;;;31.00;38.89;100138.13;10122689;29;20048;-77
2023/08/24 12:51:16;;;;;;;4.43;3.17;;;;;;;30.75;38.88;100147.91;10121771;29;20154;-77
2023/08/24 12:56:20;;;;;;;6.38;2.83;;;;;;;30.61;39.20;100150.25;10117926;29;20048;-76
2023/08/24 13:01:23;;;;;;;5.25;3.08;;;;;;;30.50;39.94;100140.19;10115451;28;20052;-77
2023/08/24 13:06:26;;;;;;;4.03;3.63;;;;;;;30.76;39.11;100121.84;10119734;28;20048;-77
2023/08/24 13:11:30;;;;;;;4.10;3.17;;;;;;;31.01;40.04;100117.59;10124376;29;20645;-76
2023/08/24 13:16:33;;;;;;;6.95;3.53;;;;;;;30.55;40.49;100115.25;10130664;29;20063;-75
2023/08/24 13:21:36;;;;;;;5.30;3.15;;;;;;;31.14;40.73;100114.38;10121069;29;20102;-76
2023/08/24 13:26:40;;;;;;;3.45;3.15;;;;;;;30.96;39.97;100107.28;10129977;28;20057;-77
2023/08/24 13:31:43;;;;;;;8.32;3.42;;;;;;;30.64;40.71;100113.69;10122028;28;20052;-77
2023/08/24 13:36:46;;;;;;;7.20;3.38;;;;;;;30.65;41.06;100096.00;10124268;29;20125;-77
2023/08/24 13:41:50;;;;;;;4.68;3.05;;;;;;;30.75;40.65;100070.28;10122800;29;20052;-77
2023/08/24 13:46:53;;;;;;;7.30;3.10;;;;;;;31.12;40.07;100048.03;10121343;29;20052;-77
2023/08/24 13:51:56;;;;;;;5.10;2.90;;;;;;;31.98;39.53;100045.91;10124539;29;20055;-77
2023/08/24 13:57:01;;;;;;;4.25;3.30;;;;;;;31.88;38.52;100032.03;10124008;28;20040;-77
2023/08/24 14:02:05;;;;;;;3.97;3.00;;;;;;;31.58;39.79;100028.03;10122721;28;20089;-76
2023/08/24 14:07:08;;;;;;;7.40;3.97;;;;;;;31.22;40.21;100039.00;10122537;29;20048;-77
2023/08/24 14:12:12;;;;;;;6.53;2.95;;;;;;;30.74;41.02;100053.91;10123857;29;20515;-77
2023/08/24 14:17:15;;;;;;;4.63;2.90;;;;;;;29.94;42.65;100037.13;10123654;29;20052;-76
2023/08/24 14:22:18;;;;;;;9.35;3.30;;;;;;;29.57;43.06;100038.63;10119831;28;20096;-75
2023/08/24 14:27:22;;;;;;;5.63;3.08;;;;;;;28.98;45.12;100045.84;10120276;28;20091;-76
2023/08/24 14:32:25;;;;;;;4.53;2.88;;;;;;;28.81;45.60;100043.13;10114025;29;20049;-74
2023/08/24 14:37:29;;;;;;;4.28;3.20;;;;;;;28.53;46.34;100046.84;10116476;29;20080;-75
2023/08/24 14:42:33;;;;;;;4.75;3.28;;;;;;;28.31;46.54;100043.97;10119641;29;20055;-76
2023/08/24 14:47:39;;;;;;;6.38;3.80;;;;;;;27.81;47.49;100045.50;10114782;29;20044;-77
2023/08/24 14:52:41;;;;;;;5.22;3.40;;;;;;;27.82;48.34;100045.25;10118374;28;20500;-77
2023/08/24 14:57:46;;;;;;;5.38;3.20;;;;;;;27.60;49.96;100030.47;10122816;29;20078;-77
2023/08/24 15:02:49;;;;;;;8.98;3.80;;;;;;;27.50;51.00;100020.06;10127189;29;20059;-76
2023/08/24 15:07:52;;;;;;;14.05;3.75;;;;;;;27.05;53.79;100008.91;10115659;29;20048;-76
2023/08/24 15:12:57;;;;;;;5.15;4.03;;;;;;;26.61;55.55;100012.03;10116480;29;20052;-76
2023/08/24 15:17:59;;;;;;;5.38;4.65;;;;;;;26.08;61.21;100015.63;10116114;28;20722;-76
2023/08/24 15:23:03;;;;;;;10.95;4.70;;;;;;;25.85;63.42;100017.25;10128163;29;20054;-76
2023/08/24 15:28:07;;;;;;;5.93;3.78;;;;;;;25.91;62.58;100015.47;10129119;29;20416;-76
2023/08/24 15:33:10;;;;;;;14.43;4.50;;;;;;;26.18;59.16;99993.03;10123783;29;20051;-75
2023/08/24 15:38:14;;;;;;;9.55;4.70;;;;;;;26.56;57.04;99976.09;10118262;29;20724;-76
2023/08/24 15:43:18;;;;;;;9.40;5.00;;;;;;;26.77;55.28;99960.03;10133538;29;21158;-76
2023/08/24 15:48:21;;;;;;;7.80;4.40;;;;;;;26.93;55.42;99948.28;10125000;29;20056;-76
2023/08/24 15:53:24;;;;;;;5.68;4.00;;;;;;;27.10;54.94;99962.16;10110921;29;20063;-76
2023/08/24 15:58:28;;;;;;;6.95;4.50;;;;;;;27.23;54.45;99963.78;10113936;29;20505;-76
2023/08/24 16:03:31;;;;;;;6.55;3.88;;;;;;;26.98;55.28;99962.19;10114452;29;20060;-76
2023/08/24 16:08:35;;;;;;;7.65;4.40;;;;;;;26.89;55.24;99970.00;10113979;29;20505;-74
2023/08/24 16:13:39;;;;;;;6.72;5.13;;;;;;;26.81;56.43;99967.56;10109741;28;20056;-76
2023/08/24 16:18:42;;;;;;;8.95;4.40;;;;;;;26.88;53.85;99951.78;10114168;28;20189;-76
2023/08/24 16:23:44;;;;;;;10.18;4.85;;;;;;;26.91;54.07;99955.97;10116980;29;20979;-76
2023/08/24 16:28:49;;;;;;;6.95;3.85;;;;;;;26.90;53.69;99949.59;10115241;29;20543;-76
2023/08/24 16:33:52;;;;;;;7.15;4.60;;;;;;;26.80;54.80;99949.38;10122657;29;20521;-75
2023/08/24 16:38:55;;;;;;;8.65;5.00;;;;;;;26.72;55.77;99947.84;10118542;29;20480;-74
2023/08/24 16:43:59;;;;;;;5.72;4.38;;;;;;;26.55;55.97;99944.16;10111041;28;20134;-76
2023/08/24 16:49:02;;;;;;;6.70;4.55;;;;;;;26.41;56.46;99934.44;10162863;29;20046;-76
2023/08/24 16:54:05;;;;;;;10.00;4.53;;;;;;;26.22;56.81;99923.53;10165953;29;20044;-74
2023/08/24 16:59:10;;;;;;;9.85;6.35;;;;;;;26.11;57.74;99916.09;10175911;29;20040;-77
2023/08/24 17:04:12;;;;;;;7.40;6.32;;;;;;;25.89;58.42;99918.59;10159146;29;20079;-76
2023/08/24 17:09:15;;;;;;;7.20;6.22;;;;;;;25.65;59.29;99916.88;10160514;29;20047;-76
2023/08/24 17:14:20;;;;;;;9.65;7.13;;;;;;;25.46;60.37;99911.41;10157598;29;20044;-77
2023/08/24 17:19:22;;;;;;;8.98;6.70;;;;;;;25.43;60.50;99911.88;10155188;29;20114;-76
2023/08/24 17:24:25;;;;;;;7.20;6.43;;;;;;;25.38;60.86;99912.56;10158981;29;20432;-75
2023/08/24 17:29:29;;;;;;;9.73;6.78;;;;;;;25.30;61.14;99899.16;10159354;29;20420;-75
2023/08/24 17:34:32;;;;;;;7.53;6.78;;;;;;;25.24;60.92;99891.84;10158180;29;20049;-75
2023/08/24 17:39:35;;;;;;;8.10;5.95;;;;;;;25.06;59.31;99889.13;10160634;29;20048;-74
2023/08/24 17:44:39;;;;;;;6.97;5.47;;;;;;;24.92;58.70;99871.94;10158490;29;20048;-76
2023/08/24 17:49:42;;;;;;;10.40;5.60;;;;;;;24.86;58.39;99876.47;10160327;29;20052;-76
2023/08/24 17:54:45;;;;;;;8.38;5.20;;;;;;;24.86;58.43;99873.72;10158752;29;20060;-76
2023/08/24 17:59:49;;;;;;;12.32;4.82;;;;;;;24.79;58.20;99870.19;10168612;29;20045;-75
2023/08/24 18:04:52;;;;;;;8.10;4.05;;;;;;;24.57;57.78;99866.25;10167508;29;20052;-76
2023/08/24 18:09:55;;;;;;;8.95;3.92;;;;;;;24.46;58.31;99876.09;10170945;29;20048;-77
2023/08/24 18:14:59;;;;;;;7.45;3.55;;;;;;;24.18;58.18;99868.34;10175128;29;20662;-77
2023/08/24 18:20:02;;;;;;;8.27;3.63;;;;;;;23.93;58.83;99873.84;10175848;29;20453;-77
2023/08/24 18:25:06;;;;;;;9.93;3.67;;;;;;;23.85;58.57;99886.78;10169875;29;20082;-77
2023/08/24 18:30:11;;;;;;;4.75;3.78;;;;;;;23.84;58.06;99890.59;10167568;29;20036;-75
2023/08/24 18:35:14;;;;;;;3.95;3.30;;;;;;;23.78;58.25;99883.25;10167744;29;20043;-77
2023/08/24 18:40:17;;;;;;;7.80;4.13;;;;;;;23.87;58.16;99867.38;10178511;29;20111;-77
2023/08/24 18:45:23;;;;;;;4.95;4.28;;;;;;;23.81;58.80;99876.50;10170294;29;20580;-76
2023/08/24 18:50:26;;;;;;;5.18;4.20;;;;;;;23.58;59.26;99886.09;10170115;29;20073;-77
2023/08/24 18:55:29;;;;;;;7.60;4.10;;;;;;;23.46;59.46;99881.59;10168297;29;20064;-77
2023/08/24 19:00:36;;;;;;;4.45;3.90;;;;;;;23.13;60.80;99897.16;10170356;29;20044;-77
2023/08/24 19:05:40;;;;;;;6.80;3.97;;;;;;;23.41;60.14;99874.84;10171899;29;20051;-74
2023/08/24 19:10:45;;;;;;;9.23;4.03;;;;;;;23.47;59.86;99878.59;10171822;29;20111;-77
2023/08/24 19:15:49;;;;;;;7.60;3.63;;;;;;;23.35;59.74;99861.19;10172509;29;20057;-77
2023/08/24 19:20:51;;;;;;;5.95;3.85;;;;;;;23.33;59.80;99875.09;10171386;29;20092;-77
2023/08/24 19:25:54;;;;;;;6.50;3.65;;;;;;;23.01;61.01;99882.44;10169959;29;20056;-77
2023/08/24 19:30:59;;;;;;;5.18;3.60;;;;;;;22.95;61.14;99899.72;10170532;29;20423;-77
2023/08/24 19:36:02;;;;;;;10.45;3.85;;;;;;;23.02;61.23;99896.97;10167247;29;20059;-77
2023/08/24 19:41:05;;;;;;;4.43;3.90;;;;;;;22.85;61.52;99885.69;10169299;29;20060;-78
2023/08/24 19:46:09;;;;;;;10.90;4.35;;;;;;;22.91;61.35;99879.31;10165213;29;20067;-77
2023/08/24 19:51:12;;;;;;;7.13;4.15;;;;;;;22.80;61.54;99850.72;10188605;29;20515;-76
2023/08/24 19:56:15;;;;;;;6.65;4.57;;;;;;;22.68;61.87;99850.59;10172998;29;20040;-77
2023/08/24 20:01:19;;;;;;;5.75;3.65;;;;;;;22.54;62.40;99855.28;10171394;29;20040;-77
2023/08/24 20:06:23;;;;;;;6.82;4.18;;;;;;;22.49;62.43;99841.38;10170753;29;20084;-77
2023/08/24 20:11:30;;;;;;;4.80;3.88;;;;;;;22.52;62.51;99851.06;10169044;29;20048;-77
2023/08/24 20:16:34;;;;;;;8.02;3.78;;;;;;;22.48;62.72;99836.94;10170328;29;20080;-78
2023/08/24 20:21:37;;;;;;;5.75;3.70;;;;;;;22.38;63.03;99820.13;10170485;29;20515;-76
2023/08/24 20:26:40;;;;;;;4.32;3.60;;;;;;;22.27;62.96;99828.97;10177587;29;20063;-76
2023/08/24 20:31:45;;;;;;;6.63;3.40;;;;;;;22.21;63.09;99808.78;10175320;29;20044;-76
2023/08/24 20:36:48;;;;;;;6.78;4.25;;;;;;;22.19;63.59;99807.34;10173126;29;20040;-77
2023/08/24 20:41:52;;;;;;;8.88;4.15;;;;;;;22.15;63.54;99817.03;10174882;29;20143;-77
2023/08/24 20:46:56;;;;;;;8.88;4.25;;;;;;;22.14;64.10;99821.66;10174241;29;20091;-77
2023/08/24 20:52:00;;;;;;;8.23;4.25;;;;;;;22.07;64.15;99818.94;10159687;29;20064;-77
2023/08/24 20:57:04;;;;;;;6.07;3.72;;;;;;;22.10;64.33;99809.47;10131424;29;21211;-77
2023/08/24 21:02:08;;;;;;;6.88;3.67;;;;;;;22.08;64.46;99819.81;10130374;29;20051;-77
2023/08/24 21:07:11;;;;;;;6.20;3.65;;;;;;;21.98;64.36;99819.38;10132387;28;20072;-77
2023/08/24 21:12:13;;;;;;;7.53;3.85;;;;;;;21.95;64.69;99806.16;10133612;29;20532;-77
2023/08/24 21:17:18;;;;;;;7.85;4.90;;;;;;;21.64;65.60;99804.91;10131478;29;20082;-77
2023/08/24 21:22:21;;;;;;;4.47;4.07;;;;;;;21.41;66.61;99802.56;10139221;29;20047;-76
2023/08/24 21:27:24;;;;;;;8.27;4.25;;;;;;;21.28;67.61;99811.56;10164794;29;20052;-76
2023/08/24 21:32:29;;;;;;;5.63;4.53;;;;;;;21.07;68.28;99814.50;10131935;28;20054;-77
2023/08/24 21:37:34;;;;;;;5.82;4.05;;;;;;;20.99;68.48;99808.16;10140872;29;20552;-77
2023/08/24 21:42:38;;;;;;;5.50;4.35;;;;;;;20.98;68.98;99803.75;10138932;29;20653;-77
2023/08/24 21:47:42;;;;;;;6.25;4.78;;;;;;;20.95;68.86;99787.78;10138083;29;20043;-77
2023/08/24 21:52:45;;;;;;;8.95;4.32;;;;;;;20.90;69.32;99798.47;10138548;29;20052;-77
2023/08/24 21:57:51;;;;;;;5.25;4.47;;;;;;;20.82;69.84;99797.84;10154733;28;20055;-77
2023/08/24 22:02:56;;;;;;;7.28;4.45;;;;;;;20.91;69.36;99811.06;10140202;28;20055;-77
2023/08/24 22:07:59;;;;;;;6.32;4.80;;;;;;;21.09;69.02;99787.81;10142607;29;20130;-77
2023/08/24 22:13:02;;;;;;;7.13;4.70;;;;;;;21.21;68.31;99794.34;10130662;29;20052;-77
2023/08/24 22:18:07;;;;;;;8.05;4.80;;;;;;;21.20;68.10;99798.13;10137924;29;20048;-77
2023/08/24 22:23:10;;;;;;;7.28;4.57;;;;;;;21.23;68.09;99808.66;10138086;29;20190;-77
2023/08/24 22:28:13;;;;;;;4.95;4.10;;;;;;;21.24;67.82;99823.97;10140118;28;20055;-76
2023/08/24 22:33:17;;;;;;;8.90;4.80;;;;;;;21.12;68.53;99847.50;10135290;28;20103;-76
2023/08/24 22:38:20;;;;;;;9.90;4.93;;;;;;;20.99;68.98;99838.19;10135715;29;20071;-77
2023/08/24 22:43:22;;;;;;;7.68;5.00;;;;;;;20.93;69.28;99830.00;10138862;29;20527;-78
2023/08/24 22:48:27;;;;;;;11.95;5.63;;;;;;;20.90;69.59;99853.06;10137807;29;20048;-76
2023/08/24 22:53:30;;;;;;;10.45;6.15;;;;;;;20.84;69.36;99853.03;10131469;28;20435;-76
2023/08/24 22:58:33;;;;;;;8.30;4.95;;;;;;;20.84;69.35;99853.88;10134571;28;20058;-76
2023/08/24 23:03:37;;;;;;;8.82;5.05;;;;;;;20.92;69.59;99861.88;10133217;29;20136;-77
2023/08/24 23:08:40;;;;;;;10.05;6.03;;;;;;;20.85;69.77;99868.38;10135780;29;20103;-77
2023/08/24 23:13:43;;;;;;;10.95;5.95;;;;;;;20.72;69.73;99859.09;10130714;29;20044;-77